Time;durP1;ratioP1;P1;durP2;ratioP2;P2;SDS_P1;SDS_P2;PMS_P1;PMS_P2;Temp;Humidity;BMP_temperature;BMP_pressure;BME280_temperature;BME280_humidity;BME280_pressure;Samples;Min_cycle;Max_cycle;Signal;HPM_P1;HPM_P2
2022/05/28 00:00:22;;;;;;;1.15;0.77;;;;;;;19.63;41.31;99666.91;4488177;27;32329;-96
2022/05/28 00:03:06;;;;;;;1.17;0.40;;;;;;;19.81;41.44;99662.84;4498455;27;34399;31
2022/05/28 00:08:28;;;;;;;0.70;0.47;;;;;;;20.21;40.04;99658.53;4680734;27;32513;-94
2022/05/28 00:11:15;;;;;;;2.75;0.85;;;;;;;20.05;40.01;99671.59;4610348;27;32482;31
2022/05/28 00:13:57;;;;;;;1.15;0.60;;;;;;;20.29;39.72;99663.59;4540618;27;32932;31
2022/05/28 00:16:27;;;;;;;1.75;0.55;;;;;;;20.34;39.59;99660.81;4729423;27;33488;-93
2022/05/28 00:18:56;;;;;;;2.83;0.82;;;;;;;20.05;39.79;99664.09;4545635;27;33160;-96
2022/05/28 00:21:30;;;;;;;1.37;0.65;;;;;;;20.18;39.71;99664.66;4644845;27;31109;-96
2022/05/28 00:24:00;;;;;;;2.45;0.77;;;;;;;20.28;39.45;99648.81;5014282;27;31554;-96
2022/05/28 00:32:29;;;;;;;1.65;0.60;;;;;;;20.18;39.45;99650.72;4937233;27;20120;-96
2022/05/28 00:35:06;;;;;;;2.05;0.75;;;;;;;20.15;39.55;99673.59;4846413;27;32776;-96
2022/05/28 00:40:57;;;;;;;1.73;0.80;;;;;;;19.86;39.66;99698.25;4656591;27;19954;-95
2022/05/28 00:43:34;;;;;;;3.45;0.85;;;;;;;19.74;39.67;99704.00;4625794;27;34633;-94
2022/05/28 00:46:13;;;;;;;3.72;0.93;;;;;;;19.77;39.95;99708.19;4698676;27;128565;-96
2022/05/28 00:48:49;;;;;;;3.50;1.05;;;;;;;19.57;39.74;99709.75;4588161;27;33989;-95
2022/05/28 00:51:23;;;;;;;2.10;0.77;;;;;;;19.30;40.13;99698.66;4514340;27;32142;-96
2022/05/28 00:53:56;;;;;;;2.50;0.85;;;;;;;19.47;39.82;99700.47;4564996;27;32044;-89
2022/05/28 00:56:37;;;;;;;2.30;0.73;;;;;;;19.53;39.59;99704.97;4833050;27;32354;31
2022/05/28 00:59:09;;;;;;;0.82;0.50;;;;;;;19.25;40.02;99690.28;4543134;27;32201;-94
2022/05/28 01:05:05;;;;;;;2.08;0.82;;;;;;;19.56;40.11;99680.22;4990070;27;22431;-89
2022/05/28 01:07:44;;;;;;;1.92;0.82;;;;;;;19.25;40.63;99665.22;4822024;27;32727;-94
2022/05/28 01:10:34;;;;;;;1.48;0.77;;;;;;;19.10;40.73;99665.09;4578390;27;34690;-89
2022/05/28 01:13:30;;;;;;;2.80;1.00;;;;;;;19.40;40.55;99648.66;4484410;27;32886;-96
2022/05/28 01:16:09;;;;;;;2.10;0.90;;;;;;;18.98;41.34;99651.37;4513725;27;33999;-95
2022/05/28 01:18:50;;;;;;;3.92;1.00;;;;;;;19.23;40.92;99647.97;4609755;27;32008;-91
2022/05/28 01:21:39;;;;;;;2.10;0.85;;;;;;;19.13;41.19;99653.44;4577987;27;32035;31
2022/05/28 01:24:16;;;;;;;2.78;1.30;;;;;;;19.16;41.44;99643.72;4517056;27;35159;-94
2022/05/28 01:29:46;;;;;;;1.93;0.90;;;;;;;19.29;41.80;99627.41;4424927;27;20142;-93
2022/05/28 01:32:30;;;;;;;2.33;1.00;;;;;;;19.12;41.74;99640.63;4536072;27;32240;-88
2022/05/28 01:35:08;;;;;;;2.20;0.90;;;;;;;19.29;41.55;99635.78;4848914;27;35173;31
2022/05/28 01:37:41;;;;;;;3.03;1.15;;;;;;;19.30;41.70;99640.22;4461252;27;34497;-94
2022/05/28 01:40:09;;;;;;;1.77;0.85;;;;;;;19.06;41.90;99633.34;4712615;27;34061;-94
2022/05/28 01:42:41;;;;;;;1.55;0.90;;;;;;;19.28;41.59;99638.81;4385273;32;33162;-96
2022/05/28 01:48:11;;;;;;;1.40;0.93;;;;;;;19.30;41.67;99623.53;4432890;27;32930;-94
2022/05/28 01:50:49;;;;;;;2.05;0.90;;;;;;;19.36;41.89;99641.09;4565197;27;32852;-95
2022/05/28 01:59:28;;;;;;;2.25;0.95;;;;;;;19.37;41.78;99662.25;4544875;27;20160;-95
2022/05/28 02:02:03;;;;;;;2.60;1.00;;;;;;;19.49;41.79;99656.50;4391783;27;33063;-89
2022/05/28 02:04:35;;;;;;;2.10;0.80;;;;;;;19.50;41.76;99653.41;4534401;27;34384;-95
2022/05/28 02:07:04;;;;;;;2.72;1.10;;;;;;;18.90;42.96;99653.78;4482563;27;33531;-87
2022/05/28 02:09:45;;;;;;;3.32;1.16;;;;;;;19.28;42.11;99663.88;4574458;27;34102;-96
2022/05/28 02:12:25;;;;;;;1.55;0.85;;;;;;;18.95;43.01;99648.28;4430203;27;30047;-94
2022/05/28 02:15:20;;;;;;;1.20;0.90;;;;;;;19.45;41.90;99641.44;4350862;32;33950;-94
2022/05/28 02:18:09;;;;;;;1.27;0.80;;;;;;;19.06;42.77;99658.41;4592027;27;33483;31
2022/05/28 02:20:46;;;;;;;1.80;0.80;;;;;;;18.87;43.50;99662.66;4445991;27;31966;-93
2022/05/28 02:23:29;;;;;;;2.67;0.98;;;;;;;18.82;43.75;99646.81;4613729;27;32819;-91
2022/05/28 02:26:04;;;;;;;2.00;0.98;;;;;;;18.39;44.88;99656.03;4447384;27;34668;-95
2022/05/28 02:28:48;;;;;;;2.30;1.00;;;;;;;18.67;44.18;99661.41;4440489;27;32768;31
2022/05/28 02:31:35;;;;;;;4.12;1.00;;;;;;;19.00;43.52;99662.22;4442988;27;33020;31
2022/05/28 02:34:10;;;;;;;3.50;1.17;;;;;;;18.59;44.58;99666.56;4351119;27;31937;-96
2022/05/28 02:36:45;;;;;;;2.62;0.70;;;;;;;18.95;43.89;99668.59;4350380;33;32930;-94
2022/05/28 02:39:17;;;;;;;2.55;0.90;;;;;;;19.02;43.76;99676.72;4371795;27;32900;31
2022/05/28 02:41:48;;;;;;;1.23;0.70;;;;;;;18.97;43.88;99685.00;4536177;27;33762;-90
2022/05/28 02:44:23;;;;;;;2.58;0.80;;;;;;;18.63;44.80;99676.06;4672571;27;33575;-94
2022/05/28 02:47:00;;;;;;;2.35;0.80;;;;;;;18.47;45.33;99674.19;4526280;27;33179;31
2022/05/28 02:49:28;;;;;;;2.70;1.12;;;;;;;18.65;44.88;99677.50;4424086;27;32518;-96
2022/05/28 02:51:59;;;;;;;2.72;0.90;;;;;;;18.35;45.88;99679.91;4351886;32;33304;-96
2022/05/28 02:54:35;;;;;;;3.40;1.00;;;;;;;18.57;45.36;99669.59;4606683;27;33590;-93
2022/05/28 02:57:08;;;;;;;1.75;0.88;;;;;;;18.27;46.17;99672.03;4350224;32;33737;-95
2022/05/28 02:59:36;;;;;;;2.58;0.98;;;;;;;18.57;45.52;99660.41;4515264;27;33719;-90
2022/05/28 03:02:07;;;;;;;2.37;1.00;;;;;;;18.56;46.03;99656.78;4533078;27;32451;-96
2022/05/28 03:04:34;;;;;;;3.53;1.05;;;;;;;18.53;45.87;99653.69;4465821;27;31530;-94
2022/05/28 03:07:03;;;;;;;3.55;1.15;;;;;;;18.74;45.69;99650.91;4568311;27;34688;-96
2022/05/28 03:09:33;;;;;;;2.00;1.08;;;;;;;18.41;46.28;99649.13;4399548;27;32841;-95
2022/05/28 03:12:13;;;;;;;2.67;1.20;;;;;;;18.57;46.03;99649.28;4407329;27;32527;31
2022/05/28 03:14:43;;;;;;;3.37;1.30;;;;;;;18.64;45.81;99638.84;4473876;27;33125;-95
2022/05/28 03:17:18;;;;;;;2.47;1.23;;;;;;;18.60;45.66;99638.53;4454882;27;32392;-96
2022/05/28 03:19:49;;;;;;;2.97;0.98;;;;;;;18.70;45.67;99646.97;4432071;27;32449;-90
2022/05/28 03:22:17;;;;;;;2.60;1.02;;;;;;;18.60;45.60;99657.97;4624971;27;32517;-95
2022/05/28 03:25:05;;;;;;;1.98;1.00;;;;;;;18.54;45.91;99656.22;4813490;27;31891;31
2022/05/28 03:27:41;;;;;;;2.30;1.15;;;;;;;18.53;46.25;99654.53;4366932;27;31977;-95
2022/05/28 03:30:17;;;;;;;1.77;0.98;;;;;;;18.37;46.21;99655.47;4714984;27;32919;-96
2022/05/28 03:32:45;;;;;;;2.37;1.00;;;;;;;18.55;45.91;99652.34;4565536;27;32663;-95
2022/05/28 03:35:15;;;;;;;2.60;0.93;;;;;;;18.69;45.33;99636.94;4402285;27;31641;-96
2022/05/28 03:37:45;;;;;;;2.15;1.10;;;;;;;18.69;45.69;99627.78;4585863;27;33455;-95
2022/05/28 03:40:19;;;;;;;1.85;0.90;;;;;;;18.96;44.77;99633.28;4356955;32;34690;-93
2022/05/28 03:43:13;;;;;;;2.60;1.02;;;;;;;18.36;46.02;99642.69;4354488;32;33348;-94
2022/05/28 03:45:42;;;;;;;2.22;1.10;;;;;;;18.51;45.59;99636.44;4340665;32;32456;-93
2022/05/28 03:48:19;;;;;;;1.85;1.02;;;;;;;18.10;46.50;99644.34;4340656;32;33231;-93
2022/05/28 03:50:47;;;;;;;2.58;1.10;;;;;;;18.21;46.32;99645.28;4352296;32;33976;-93
2022/05/28 03:53:21;;;;;;;4.85;1.30;;;;;;;18.13;46.79;99649.38;4353069;32;33634;-93
2022/05/28 03:55:55;;;;;;;2.00;1.05;;;;;;;18.21;46.49;99659.16;4352058;32;33101;-94
2022/05/28 03:58:31;;;;;;;3.97;1.40;;;;;;;18.13;46.79;99645.75;4353259;32;33156;-92
2022/05/28 04:00:59;;;;;;;2.00;1.05;;;;;;;18.19;46.58;99641.94;4368291;32;34244;-91
2022/05/28 04:03:42;;;;;;;2.17;1.02;;;;;;;18.16;46.73;99648.03;4379957;32;34768;-92
2022/05/28 04:06:18;;;;;;;2.25;1.10;;;;;;;18.34;46.26;99651.28;4364059;32;31573;-93
2022/05/28 04:08:56;;;;;;;2.25;1.05;;;;;;;17.97;46.89;99639.19;4379521;32;31966;-94
2022/05/28 04:11:32;;;;;;;2.12;1.00;;;;;;;18.13;46.53;99637.44;4366903;32;34546;-94
2022/05/28 04:14:06;;;;;;;3.45;1.20;;;;;;;18.08;46.63;99633.50;4367233;32;32483;-95
2022/05/28 04:16:39;;;;;;;2.70;1.02;;;;;;;18.22;46.23;99645.00;4380762;32;33218;-95
2022/05/28 04:19:15;;;;;;;2.12;0.98;;;;;;;18.13;46.54;99652.16;4370624;32;33923;-94
2022/05/28 04:21:49;;;;;;;3.75;1.27;;;;;;;17.83;47.37;99655.38;4360913;32;34591;-85
2022/05/28 04:24:22;;;;;;;3.35;1.05;;;;;;;18.07;46.80;99647.62;4354125;32;33957;-84
2022/05/28 04:26:53;;;;;;;1.73;0.90;;;;;;;18.14;46.75;99641.88;4369234;32;32877;-83
2022/05/28 04:29:23;;;;;;;1.92;0.90;;;;;;;18.39;46.01;99639.38;4367239;32;32969;-84
2022/05/28 04:31:57;;;;;;;2.28;1.10;;;;;;;18.01;46.94;99634.78;4379351;32;34609;-84
2022/05/28 04:34:31;;;;;;;2.92;1.23;;;;;;;18.08;46.97;99635.44;4378887;32;32469;-84
2022/05/28 04:37:01;;;;;;;3.83;1.15;;;;;;;18.21;46.83;99642.50;4379440;32;33978;-84
2022/05/28 04:39:29;;;;;;;2.30;1.08;;;;;;;18.22;46.84;99635.84;4376672;32;33164;-85
2022/05/28 04:42:04;;;;;;;2.22;1.00;;;;;;;18.21;46.83;99640.56;4364591;32;33743;-83
2022/05/28 04:44:38;;;;;;;2.47;1.00;;;;;;;18.21;47.03;99642.50;4363461;32;33971;-87
2022/05/28 04:47:17;;;;;;;3.00;1.10;;;;;;;18.22;47.08;99658.06;4364461;32;31650;-89
2022/05/28 04:49:47;;;;;;;2.12;1.20;;;;;;;18.28;46.93;99657.03;4364294;32;32386;-91
2022/05/28 04:52:23;;;;;;;2.87;1.20;;;;;;;18.17;47.28;99655.25;4364501;32;34557;-90
2022/05/28 04:54:57;;;;;;;3.33;1.33;;;;;;;18.02;47.64;99648.41;4364601;32;33965;-90
2022/05/28 04:57:25;;;;;;;2.90;1.23;;;;;;;18.08;47.79;99654.88;4350619;32;32623;-89
2022/05/28 04:59:56;;;;;;;5.80;1.40;;;;;;;17.83;48.30;99660.94;4364151;32;33980;-90
2022/05/28 05:02:30;;;;;;;2.30;1.10;;;;;;;18.10;47.83;99655.44;4364253;32;32772;-88
2022/05/28 05:04:58;;;;;;;4.45;1.20;;;;;;;18.19;47.49;99664.16;4364567;32;34013;-86
2022/05/28 05:07:29;;;;;;;4.37;1.35;;;;;;;18.41;47.00;99674.13;4367254;32;33372;-88
2022/05/28 05:10:00;;;;;;;3.30;1.17;;;;;;;18.37;46.80;99672.13;4367968;32;35068;-88
2022/05/28 05:12:32;;;;;;;1.60;1.08;;;;;;;18.48;46.39;99678.66;4367591;32;32888;-91
2022/05/28 05:15:06;;;;;;;3.53;1.42;;;;;;;18.59;45.98;99670.16;4367174;32;34743;-86
2022/05/28 05:17:45;;;;;;;2.83;1.12;;;;;;;18.66;46.07;99670.00;4365374;32;31954;-86
2022/05/28 05:20:18;;;;;;;2.10;1.15;;;;;;;18.81;45.56;99659.03;4364575;32;33595;-85
2022/05/28 05:22:48;;;;;;;3.80;1.30;;;;;;;18.84;46.17;99663.22;4364666;32;35227;-84
2022/05/28 05:25:17;;;;;;;4.37;1.55;;;;;;;18.86;45.07;99664.59;4364736;32;32547;-86
2022/05/28 05:27:48;;;;;;;6.28;2.83;;;;;;;19.04;44.89;99667.00;4351794;32;31808;-87
2022/05/28 05:30:16;;;;;;;11.35;5.70;;;;;;;19.00;45.07;99668.63;4363142;32;33462;-87
2022/05/28 05:32:52;;;;;;;10.73;6.53;;;;;;;19.05;44.84;99670.63;4363724;32;34432;-81
2022/05/28 05:35:36;;;;;;;8.10;2.87;;;;;;;18.88;45.22;99662.41;4364259;32;34697;-82
2022/05/28 05:38:11;;;;;;;6.07;3.58;;;;;;;19.35;51.23;99662.53;4364601;32;33310;-88
2022/05/28 05:40:42;;;;;;;5.82;1.80;;;;;;;19.33;45.45;99664.75;4351551;32;32308;-87
2022/05/28 05:43:18;;;;;;;5.95;2.37;;;;;;;19.59;45.47;99673.28;4364193;32;35294;-86
2022/05/28 05:45:57;;;;;;;3.58;1.30;;;;;;;19.80;46.47;99669.50;4364317;32;33940;-86
2022/05/28 05:48:33;;;;;;;4.20;1.25;;;;;;;19.85;45.42;99677.91;4363825;32;32849;-85
2022/05/28 05:51:06;;;;;;;3.03;1.30;;;;;;;19.64;44.73;99679.72;4363740;32;32670;-89
2022/05/28 05:53:40;;;;;;;2.80;1.40;;;;;;;19.67;44.68;99681.13;4363639;32;33572;-88
2022/05/28 05:56:12;;;;;;;4.50;1.12;;;;;;;19.58;44.64;99677.16;4364032;32;33445;-87
2022/05/28 05:58:44;;;;;;;4.70;1.05;;;;;;;19.65;44.79;99666.63;4351238;32;32713;-87
2022/05/28 06:01:26;;;;;;;3.17;1.55;;;;;;;19.46;44.25;99662.59;4362742;32;33431;-85
2022/05/28 06:04:05;;;;;;;5.37;1.90;;;;;;;19.58;44.15;99666.03;4352100;32;32993;-86
2022/05/28 06:06:44;;;;;;;10.18;3.65;;;;;;;19.56;44.20;99668.25;4362969;32;32848;-86
2022/05/28 06:09:33;;;;;;;18.60;9.50;;;;;;;19.96;43.65;99653.72;4352588;32;32026;-87
2022/05/28 06:12:06;;;;;;;7.32;3.22;;;;;;;19.95;43.19;99658.47;4375775;32;34637;-86
2022/05/28 06:14:40;;;;;;;4.45;1.60;;;;;;;19.85;43.54;99652.84;4375243;32;34196;-88
2022/05/28 06:17:11;;;;;;;3.35;1.60;;;;;;;19.73;44.02;99660.56;4365531;32;34143;-87
2022/05/28 06:19:42;;;;;;;4.93;1.50;;;;;;;19.84;43.62;99665.09;4365432;32;32697;-84
2022/05/28 06:22:18;;;;;;;5.05;2.40;;;;;;;19.99;43.58;99661.53;4365916;32;34519;-88
2022/05/28 06:24:49;;;;;;;2.55;1.30;;;;;;;20.11;43.75;99658.53;4365435;32;33799;-82
2022/05/28 06:27:22;;;;;;;6.03;1.33;;;;;;;19.76;42.73;99657.25;4365510;32;33445;-81
2022/05/28 06:30:09;;;;;;;3.50;1.40;;;;;;;20.06;43.90;99646.25;4360286;32;31822;-84
2022/05/28 06:32:51;;;;;;;6.55;1.83;;;;;;;20.29;42.20;99655.22;4349071;32;34037;-83
2022/05/28 06:35:36;;;;;;;3.58;1.23;;;;;;;20.59;43.00;99660.09;4350445;32;34493;-82
2022/05/28 06:38:15;;;;;;;3.28;1.58;;;;;;;20.50;41.31;99657.00;4361481;32;32477;-84
2022/05/28 06:41:00;;;;;;;4.45;1.83;;;;;;;20.46;41.36;99655.03;4350357;32;31911;-84
2022/05/28 06:43:42;;;;;;;4.37;1.90;;;;;;;20.59;42.16;99655.34;4362797;32;33755;-83
2022/05/28 06:46:24;;;;;;;4.80;1.25;;;;;;;20.63;41.96;99658.44;4351159;32;35287;-83
2022/05/28 06:49:01;;;;;;;3.75;1.50;;;;;;;21.01;40.28;99654.28;4360586;32;32554;-83
2022/05/28 06:51:37;;;;;;;2.75;1.33;;;;;;;20.75;40.66;99647.88;4360538;32;33341;-82
2022/05/28 06:54:10;;;;;;;1.52;1.00;;;;;;;20.44;40.22;99658.09;4359035;32;33851;-83
2022/05/28 06:56:41;;;;;;;4.82;1.42;;;;;;;20.53;40.85;99656.47;4346873;32;33776;-84
2022/05/28 06:59:09;;;;;;;4.32;1.50;;;;;;;20.52;40.95;99656.72;4346964;32;32338;-82
2022/05/28 07:01:39;;;;;;;2.83;1.30;;;;;;;20.77;40.78;99664.31;4348215;32;33306;-83
2022/05/28 07:04:10;;;;;;;2.25;1.27;;;;;;;20.69;40.74;99674.06;4360913;32;33466;-84
2022/05/28 07:06:40;;;;;;;3.05;1.30;;;;;;;20.31;41.24;99669.72;4355475;32;34257;-84
2022/05/28 07:09:12;;;;;;;2.72;1.20;;;;;;;20.66;40.75;99672.66;4366023;32;34005;-84
2022/05/28 07:11:45;;;;;;;3.53;1.30;;;;;;;20.65;41.02;99676.56;4364847;32;33316;-82
2022/05/28 07:14:19;;;;;;;3.87;1.42;;;;;;;20.90;39.92;99672.97;4362406;32;33717;-85
2022/05/28 07:16:55;;;;;;;3.80;1.50;;;;;;;21.07;39.91;99675.50;4362611;32;34434;-83
2022/05/28 07:19:26;;;;;;;4.78;2.50;;;;;;;21.03;40.09;99678.00;4350591;32;34138;-84
2022/05/28 07:21:56;;;;;;;4.50;1.90;;;;;;;21.02;40.35;99686.66;4362597;32;32919;-84
2022/05/28 07:24:30;;;;;;;4.53;1.58;;;;;;;21.01;40.37;99683.03;4362595;32;33318;-83
2022/05/28 07:26:59;;;;;;;6.87;1.48;;;;;;;21.24;40.78;99684.47;4350464;32;33058;-84
2022/05/28 07:29:27;;;;;;;3.05;1.27;;;;;;;21.16;39.25;99687.78;4338181;32;32466;-83
2022/05/28 07:32:00;;;;;;;3.50;1.40;;;;;;;21.18;39.32;99688.34;4350452;32;31962;-84
2022/05/28 07:34:34;;;;;;;4.18;1.40;;;;;;;21.04;39.01;99699.22;4362482;32;32448;-84
2022/05/28 07:37:01;;;;;;;4.60;1.30;;;;;;;21.07;39.04;99702.56;4349459;32;34381;-82
2022/05/28 07:39:32;;;;;;;3.30;1.50;;;;;;;20.98;39.20;99705.06;4362352;32;32464;-83
2022/05/28 07:42:03;;;;;;;5.45;1.37;;;;;;;20.79;39.21;99706.72;4362344;32;33220;-82
2022/05/28 07:44:34;;;;;;;2.80;1.45;;;;;;;20.80;38.99;99708.41;4360735;32;34348;-82
2022/05/28 07:47:08;;;;;;;7.35;1.60;;;;;;;20.92;38.95;99707.00;4360286;32;34639;-82
2022/05/28 07:49:41;;;;;;;4.12;1.20;;;;;;;21.01;38.82;99704.50;4360507;32;32876;-82
2022/05/28 07:52:08;;;;;;;4.57;1.50;;;;;;;20.70;38.35;99703.63;4360744;32;33916;-83
2022/05/28 07:54:37;;;;;;;3.30;1.30;;;;;;;20.89;38.51;99703.94;4362073;32;33714;-84
2022/05/28 07:57:05;;;;;;;4.57;1.58;;;;;;;20.93;38.53;99710.63;4350196;32;34354;-83
2022/05/28 07:59:32;;;;;;;4.72;1.58;;;;;;;21.23;38.11;99710.69;4350157;32;33863;-83
2022/05/28 08:02:01;;;;;;;5.75;1.40;;;;;;;21.20;38.18;99716.81;4362758;32;33144;-83
2022/05/28 08:04:29;;;;;;;7.00;1.52;;;;;;;21.14;38.58;99706.75;4362379;32;33092;-84
2022/05/28 08:06:57;;;;;;;4.00;1.37;;;;;;;21.16;38.82;99712.06;4362042;32;34215;-83
2022/05/28 08:09:25;;;;;;;5.20;1.60;;;;;;;21.20;38.98;99704.81;4349571;32;33340;-83
2022/05/28 08:11:53;;;;;;;3.12;1.40;;;;;;;21.34;38.47;99706.81;4362363;32;33070;-83
2022/05/28 08:14:23;;;;;;;3.25;1.40;;;;;;;21.41;37.67;99700.94;4349882;32;33197;-83
2022/05/28 08:16:53;;;;;;;5.25;1.55;;;;;;;21.26;37.98;99698.13;4362522;32;34412;-84
2022/05/28 08:19:24;;;;;;;6.07;1.55;;;;;;;21.22;38.36;99703.44;4361839;32;35427;-84
2022/05/28 08:24:41;;;;;;;5.30;1.80;;;;;;;21.37;37.88;99711.81;4352011;32;32191;-84
2022/05/28 08:27:17;;;;;;;4.87;1.37;;;;;;;21.34;37.00;99709.59;4362424;32;35336;-84
2022/05/28 08:29:45;;;;;;;6.35;1.40;;;;;;;21.53;36.52;99720.16;4349939;32;33647;-84
2022/05/28 08:32:18;;;;;;;4.95;1.60;;;;;;;21.35;36.56;99719.63;4349268;32;31798;-83
2022/05/28 08:34:51;;;;;;;5.20;1.52;;;;;;;20.79;37.05;99726.25;4348532;32;32237;-83
2022/05/28 08:37:22;;;;;;;4.78;1.40;;;;;;;21.47;35.74;99724.06;4361962;32;35318;-84
2022/05/28 08:39:52;;;;;;;3.15;1.27;;;;;;;21.07;35.82;99722.94;4363820;32;34082;-84
2022/05/28 08:42:26;;;;;;;4.15;1.27;;;;;;;21.12;35.15;99717.34;4364306;32;32078;-83
2022/05/28 08:44:59;;;;;;;4.43;1.40;;;;;;;21.01;33.87;99713.72;4351353;32;34678;-84
2022/05/28 08:47:33;;;;;;;4.15;1.40;;;;;;;21.28;33.57;99719.09;4363479;32;32909;-82
2022/05/28 08:50:07;;;;;;;5.25;1.30;;;;;;;21.32;34.69;99716.56;4363977;32;34050;-83
2022/05/28 08:52:59;;;;;;;6.25;1.40;;;;;;;21.65;34.07;99718.75;4364249;32;34193;-84
2022/05/28 08:55:43;;;;;;;8.70;1.70;;;;;;;21.60;35.79;99709.56;4349491;32;32145;-84
2022/05/28 08:58:19;;;;;;;4.90;1.35;;;;;;;21.27;34.05;99706.25;4351134;32;34680;-84
2022/05/28 09:00:53;;;;;;;6.72;1.67;;;;;;;21.30;33.70;99705.69;4352556;32;34114;-85
2022/05/28 09:03:28;;;;;;;4.45;1.23;;;;;;;20.99;34.25;99712.31;4352261;32;33257;-83
2022/05/28 09:06:04;;;;;;;5.10;1.70;;;;;;;21.16;33.66;99710.09;4364152;32;32363;-84
2022/05/28 09:08:36;;;;;;;5.62;1.40;;;;;;;21.50;33.91;99706.75;4363929;32;33937;-85
2022/05/28 09:11:43;;;;;;;5.37;1.70;;;;;;;21.62;33.99;99701.72;4363591;32;34320;-79
2022/05/28 09:14:30;;;;;;;4.77;1.70;;;;;;;21.94;33.80;99693.84;4351795;32;31772;-88
2022/05/28 09:17:12;;;;;;;4.40;1.60;;;;;;;21.88;33.31;99685.75;4351761;32;31894;-88
2022/05/28 09:19:41;;;;;;;5.55;2.97;;;;;;;22.01;33.21;99688.84;4363901;32;34553;-90
2022/05/28 09:22:09;;;;;;;7.50;1.90;;;;;;;22.09;33.59;99695.81;4364140;32;32460;-90
2022/05/28 09:24:37;;;;;;;9.93;1.90;;;;;;;21.83;33.65;99699.75;4339389;32;31769;-90
2022/05/28 09:27:27;;;;;;;5.18;1.30;;;;;;;22.03;33.67;99696.94;4364170;32;34630;-86
2022/05/28 09:30:15;;;;;;;5.00;1.70;;;;;;;22.06;33.67;99701.13;4351820;32;34390;-87
2022/05/28 09:33:07;;;;;;;4.60;1.48;;;;;;;21.90;33.85;99700.28;4363656;32;33930;-87
2022/05/28 09:35:38;;;;;;;6.68;1.60;;;;;;;21.80;34.35;99691.94;4351676;32;31946;-87
2022/05/28 09:38:29;;;;;;;12.88;2.28;;;;;;;22.14;34.01;99686.53;4351277;32;33171;-88
2022/05/28 09:41:17;;;;;;;5.65;1.60;;;;;;;21.75;35.12;99691.94;4364833;32;35205;-86
2022/05/28 09:44:08;;;;;;;21.70;13.30;;;;;;;21.82;35.06;99696.13;4351367;32;34695;-87
2022/05/28 09:46:39;;;;;;;7.05;3.12;;;;;;;22.01;34.87;99700.00;4363487;32;33320;-88
2022/05/28 09:49:22;;;;;;;61.40;42.92;;;;;;;22.05;34.84;99696.66;4354149;32;32137;-89
2022/05/28 09:51:57;;;;;;;7.37;3.67;;;;;;;21.96;36.04;99702.78;4353661;32;34425;-88
2022/05/28 09:54:30;;;;;;;8.35;4.18;;;;;;;22.14;35.44;99708.91;4341326;32;33431;-87
2022/05/28 09:57:20;;;;;;;4.85;2.15;;;;;;;22.05;35.55;99710.63;4365980;32;34181;-87
2022/05/28 10:00:00;;;;;;;11.77;5.82;;;;;;;22.20;34.92;99702.16;4365969;32;33961;-88
2022/05/28 10:02:43;;;;;;;21.92;14.87;;;;;;;22.33;34.87;99701.56;4365554;32;34193;-87
2022/05/28 10:05:20;;;;;;;8.43;4.85;;;;;;;22.28;35.25;99707.16;4367014;32;34001;-94
2022/05/28 10:07:56;;;;;;;5.35;2.45;;;;;;;22.31;35.82;99698.22;4342197;32;32841;-92
2022/05/28 10:10:32;;;;;;;6.62;2.53;;;;;;;22.39;35.53;99696.78;4368166;32;34570;-80
2022/05/28 10:13:11;;;;;;;6.60;2.03;;;;;;;22.44;35.21;99696.75;4354476;32;32543;-81
2022/05/28 10:15:46;;;;;;;4.85;1.90;;;;;;;22.39;35.05;99692.03;4355466;32;34312;-79
2022/05/28 10:18:16;;;;;;;4.37;2.00;;;;;;;22.58;35.29;99689.41;4352615;32;33705;-79
2022/05/28 10:20:56;;;;;;;8.05;2.10;;;;;;;22.69;37.04;99677.06;4353554;32;34544;-79
2022/05/28 10:23:24;;;;;;;5.45;2.20;;;;;;;23.09;36.29;99678.75;4365219;32;32863;-80
2022/05/28 10:25:53;;;;;;;12.65;2.08;;;;;;;23.07;34.29;99669.81;4353421;32;34572;-80
2022/05/28 10:28:40;;;;;;;7.18;2.37;;;;;;;23.46;33.13;99671.69;4365599;32;34221;-83
2022/05/28 10:31:22;;;;;;;8.73;1.77;;;;;;;23.69;34.52;99670.94;4365510;32;33774;-82
2022/05/28 10:33:50;;;;;;;9.52;4.70;;;;;;;23.47;35.19;99671.41;4365775;32;34394;-82
2022/05/28 10:36:23;;;;;;;6.37;1.80;;;;;;;23.61;36.35;99674.38;4365630;32;34560;-81
2022/05/28 10:38:51;;;;;;;12.02;5.95;;;;;;;23.23;33.06;99668.56;4352613;32;31803;-79
2022/05/28 10:41:26;;;;;;;5.47;1.90;;;;;;;23.71;34.88;99668.69;4365574;32;33772;-81
2022/05/28 10:43:53;;;;;;;7.93;3.12;;;;;;;23.64;32.80;99665.37;4366010;32;34398;-80
2022/05/28 10:46:47;;;;;;;4.85;2.05;;;;;;;23.62;33.51;99660.06;4365088;32;32861;-81
2022/05/28 10:49:34;;;;;;;7.57;2.47;;;;;;;23.92;33.36;99667.34;4353449;32;32945;-81
2022/05/28 10:52:17;;;;;;;10.77;5.75;;;;;;;23.54;30.83;99657.09;4353604;32;31807;-81
2022/05/28 10:54:49;;;;;;;17.08;7.87;;;;;;;23.27;32.08;99664.03;4374901;32;34454;-82
2022/05/28 10:57:35;;;;;;;6.15;2.12;;;;;;;23.65;33.27;99672.66;4382206;32;32420;-84
2022/05/28 11:00:19;;;;;;;122.22;106.12;;;;;;;22.86;30.68;99648.69;4369908;32;32270;-82
2022/05/28 11:03:05;;;;;;;5.18;3.25;;;;;;;23.27;37.47;99644.44;4370666;32;33490;-82
2022/05/28 11:05:43;;;;;;;4.78;1.60;;;;;;;23.57;29.87;99646.12;4371489;32;34631;-80
2022/05/28 11:08:29;;;;;;;5.40;1.62;;;;;;;23.48;29.78;99641.41;4383008;32;33861;-83
2022/05/28 11:11:48;;;;;;;4.78;1.52;;;;;;;23.11;30.37;99650.47;4367841;32;32095;-82
2022/05/28 11:14:32;;;;;;;5.45;1.58;;;;;;;22.39;30.16;99640.84;4373442;32;32296;-83
2022/05/28 11:17:10;;;;;;;5.97;1.48;;;;;;;23.39;29.96;99646.03;4367447;32;33539;-82
2022/05/28 11:19:41;;;;;;;5.28;1.80;;;;;;;23.35;28.71;99653.34;4379794;32;33533;-84
2022/05/28 11:22:28;;;;;;;5.05;1.37;;;;;;;22.80;28.89;99649.84;4368163;32;32573;-84
2022/05/28 11:25:05;;;;;;;5.32;1.70;;;;;;;23.02;28.52;99635.41;4379891;32;34594;-84
2022/05/28 11:28:16;;;;;;;7.25;1.58;;;;;;;23.27;28.47;99633.25;4368009;32;35180;-81
2022/05/28 11:30:48;;;;;;;4.70;1.58;;;;;;;23.52;28.18;99643.34;4379952;32;33773;-80
2022/05/28 11:33:25;;;;;;;5.53;1.92;;;;;;;23.40;27.07;99637.28;4380443;32;33142;-80
2022/05/28 11:35:58;;;;;;;18.00;10.77;;;;;;;23.84;27.43;99639.94;4380184;32;33832;-80
2022/05/28 11:38:32;;;;;;;14.38;9.00;;;;;;;23.81;27.46;99629.34;4367280;32;33027;-81
2022/05/28 11:41:25;;;;;;;6.60;2.08;;;;;;;23.77;28.68;99624.62;4357401;32;32638;-80
2022/05/28 11:44:10;;;;;;;4.93;1.55;;;;;;;23.80;27.15;99619.25;4369424;32;31744;-80
2022/05/28 11:46:46;;;;;;;4.62;1.50;;;;;;;23.64;27.66;99620.56;4358552;32;34488;-80
2022/05/28 11:52:10;;;;;;;9.45;3.53;;;;;;;23.28;28.34;99615.31;4385209;32;34127;-81
2022/05/28 11:54:49;;;;;;;5.32;2.15;;;;;;;23.07;28.00;99618.56;4383958;32;34023;-80
2022/05/28 11:57:25;;;;;;;5.87;1.52;;;;;;;22.99;27.63;99609.69;4350330;32;33329;-81
2022/05/28 11:59:53;;;;;;;;;;;;;;;23.29;27.77;99614.19;4369902;32;34452;-80
2022/05/28 12:02:25;;;;;;;6.70;2.50;;;;;;;23.07;28.47;99602.63;4369786;32;33065;-80
2022/05/28 12:04:54;;;;;;;7.90;2.97;;;;;;;23.12;28.64;99604.53;4372313;32;32599;-80
2022/05/28 12:07:32;;;;;;;7.70;2.20;;;;;;;23.12;29.69;99596.13;4360182;32;33647;-80
2022/05/28 12:10:05;;;;;;;13.57;2.30;;;;;;;23.14;30.46;99596.69;4377453;32;34363;-80
2022/05/28 12:12:52;;;;;;;7.78;2.03;;;;;;;23.04;29.34;99592.00;4352142;32;33350;-83
2022/05/28 12:15:26;;;;;;;11.77;7.05;;;;;;;22.84;29.09;99595.81;4352483;32;33587;-81
2022/05/28 12:18:03;;;;;;;6.40;2.20;;;;;;;23.48;27.20;99593.81;4353029;32;34602;-81
2022/05/28 12:20:35;;;;;;;6.75;3.62;;;;;;;23.41;29.64;99590.50;4364761;32;34531;-82
2022/05/28 12:23:04;;;;;;;7.82;3.37;;;;;;;23.36;27.17;99593.38;4364864;32;33696;-83
2022/05/28 12:25:36;;;;;;;8.43;2.72;;;;;;;22.97;25.49;99588.69;4352952;32;33368;-80
2022/05/28 12:28:12;;;;;;;7.62;1.52;;;;;;;22.34;26.27;99597.81;4365010;32;34235;-82
2022/05/28 12:30:48;;;;;;;6.65;1.92;;;;;;;22.60;26.30;99592.06;4365463;32;35198;-82
2022/05/28 12:33:27;;;;;;;21.70;2.95;;;;;;;23.11;26.37;99588.87;4364753;32;34648;-82
2022/05/28 12:36:17;;;;;;;17.15;2.05;;;;;;;23.03;28.10;99593.12;4364653;32;33397;-85
2022/05/28 12:38:54;;;;;;;30.88;2.90;;;;;;;22.78;28.60;99590.50;4364410;32;34005;-82
2022/05/28 12:41:27;;;;;;;8.32;1.67;;;;;;;22.88;26.57;99593.25;4364699;32;34137;-83
2022/05/28 12:44:31;;;;;;;24.83;3.85;;;;;;;22.76;25.63;99589.97;4339856;32;32437;-83
2022/05/28 12:47:02;;;;;;;8.75;2.30;;;;;;;23.07;26.42;99583.03;4355244;32;33356;-81